Aérodrome :
LOGIN :

S'inscrire | Disclaimer

   EN    FR    IT 

 










Légende :    VFR   VFR Marginal   IFR   IFR Intensif   IFR Très Intensif
Visi : 
Plafond : 
>= 8 km
>= 3000ft
5 à 8 km
1000 à 3000 ft
1500m à 5 km
500 à 1000 ft
800 à 1500m
200 à 500 ft
< 800m
< 200 ft
Symboles :   Orages  Brouillard  Fortes neiges  Fortes précipitations  Vent > 20 kt
SIGMETs :   Divers  Orages  Givrage  Turbulence  Onde Orograph.  Cendres Volcan.






- Altitude de l'aérodrome : 1674 ft
- Code IATA : BRN


LSZB - Bern Belp

DERNIER METAR :
  • 170950Z VRB02KT 3000 -RA SCT006 BKN012 02/02 Q1004 RERASN NOSIG

METARs EXPIRÉS :
  • 170920Z 19001KT 3000 -RASN BKN005 02/01 Q1004 NOSIG
  • 170850Z 00000KT 3500 -SNRA FEW005 BKN010 01/01 Q1004 NOSIG
  • 170820Z 00000KT 4000 -SN FEW005 BKN010 01/01 Q1005 NOSIG
  • 170750Z 17002KT 4000 BR FEW005 BKN010 01/01 Q1005 NOSIG
  • 170720Z 00000KT 4000 BR FEW005 BKN010 00/00 Q1005 NOSIG

TAF TAF LSZB
Valide du 17 à 09h jusqu'au 17 à 18h UTC


170825Z 1709/1718 VRB03KT 4000 BR FEW005 BKN010
TEMPO 1709/1718 2500 RASN BKN007
PROB30
TEMPO 1709/1713 1000 SN BKN006
ATIS : +41 22 417 40 76



MET'MAP, la Météo Aéronautique d'un coup d'oeil ! - Copyright ORBIFLY Décembre 2007 - Disclaimer

ORBIFLY MET'MAP TEAM :

Programmation & Développement : Alexandra Zaïnal
Conception & Développement : Baudouin d'Aumeries
Co-Programmation & Développement : Marc-Olivier Méhu
Soutien technique & logistique : Manuel Goepfert

Contact : metmap@orbifly.com




SOURCES & CREDITS :

   NOAA